createdAt,value
2018-06-10T00:01:47.950Z,99906.09
2018-06-10T00:04:16.114Z,99899.29
2018-06-10T00:06:44.286Z,99888.20
2018-06-10T00:09:12.450Z,99879.56
2018-06-10T00:11:40.606Z,99867.91
2018-06-10T00:14:08.767Z,99862.55
2018-06-10T00:16:36.942Z,99858.17
2018-06-10T00:19:05.094Z,99851.90
2018-06-10T00:21:33.238Z,99843.53
2018-06-10T00:24:01.714Z,99841.61
2018-06-10T00:26:29.886Z,99834.00
2018-06-10T00:29:03.471Z,99827.50
2018-06-10T00:31:31.630Z,99831.02
2018-06-10T00:33:59.782Z,99826.41
2018-06-10T00:36:27.967Z,99827.50
2018-06-10T00:38:56.185Z,99823.95
2018-06-10T00:41:24.305Z,99828.27
2018-06-10T00:43:52.472Z,99827.44
2018-06-10T00:46:20.626Z,99828.84
2018-06-10T00:48:48.782Z,99826.41
2018-06-10T00:51:16.966Z,99829.67
2018-06-10T00:53:45.118Z,99829.38
2018-06-10T00:56:24.566Z,99835.04
2018-06-10T00:58:52.712Z,99833.95
2018-06-10T01:01:20.870Z,99833.95
2018-06-10T01:03:49.025Z,99826.36
2018-06-10T01:06:17.238Z,99815.31
2018-06-10T01:08:45.351Z,99816.37
2018-06-10T01:11:13.514Z,99808.02
2018-06-10T01:13:41.686Z,99805.32
2018-06-10T01:16:09.856Z,99812.09
2018-06-10T01:18:38.058Z,99813.44
2018-06-10T01:21:06.211Z,99806.95
2018-06-10T01:23:34.378Z,99815.32
2018-06-10T01:26:02.526Z,99816.66
2018-06-10T01:28:30.718Z,99812.88
2018-06-10T01:30:59.194Z,99810.99
2018-06-10T01:33:27.567Z,99806.10
2018-06-10T01:35:55.741Z,99801.28
2018-06-10T01:38:23.922Z,99808.66
2018-06-10T01:40:52.092Z,99799.50
2018-06-10T01:43:20.266Z,99808.19
2018-06-10T01:45:48.777Z,99796.28
2018-06-10T01:48:16.934Z,99790.34
2018-06-10T01:50:45.094Z,99785.14
2018-06-10T01:53:13.281Z,99776.46
2018-06-10T01:55:41.456Z,99779.73
2018-06-10T01:58:09.616Z,99779.00
2018-06-10T02:00:37.771Z,99776.84
2018-06-10T02:03:05.954Z,99779.02
2018-06-10T02:05:34.098Z,99765.80
2018-06-10T02:08:02.267Z,99776.41
2018-06-10T02:10:30.439Z,99767.20
2018-06-10T02:12:58.610Z,99758.05
2018-06-10T02:15:26.794Z,99765.06
2018-06-10T02:17:54.942Z,99763.41
2018-06-10T02:20:23.127Z,99764.54
2018-06-10T02:22:51.278Z,99763.27
2018-06-10T02:25:19.444Z,99761.72
2018-06-10T02:27:47.598Z,99765.77
2018-06-10T02:30:15.746Z,99759.81
2018-06-10T02:32:43.914Z,99754.11
2018-06-10T02:35:12.132Z,99755.49
2018-06-10T02:37:40.298Z,99747.91
2018-06-10T02:40:08.462Z,99749.00
2018-06-10T02:42:36.630Z,99747.39
2018-06-10T02:45:04.887Z,99734.70
2018-06-10T02:47:33.044Z,99732.33
2018-06-10T02:50:01.198Z,99726.40
2018-06-10T02:52:29.358Z,99732.06
2018-06-10T02:54:57.514Z,99730.19
2018-06-10T02:57:25.682Z,99727.72
2018-06-10T02:59:53.841Z,99731.77
2018-06-10T03:02:22.014Z,99737.94
2018-06-10T03:04:50.186Z,99742.58
2018-06-10T03:07:18.348Z,99734.73
2018-06-10T03:09:46.528Z,99742.80
2018-06-10T03:12:14.679Z,99736.88
2018-06-10T03:14:42.830Z,99737.94
2018-06-10T03:17:11.023Z,99745.21
2018-06-10T03:19:39.171Z,99748.17
2018-06-10T03:22:07.326Z,99748.47
2018-06-10T03:24:35.490Z,99749.09
2018-06-10T03:27:03.660Z,99755.53
2018-06-10T03:29:31.829Z,99748.51
2018-06-10T03:31:59.979Z,99747.19
2018-06-10T03:34:28.146Z,99741.52
2018-06-10T03:36:56.306Z,99733.42
2018-06-10T03:39:24.467Z,99733.45
2018-06-10T03:41:52.638Z,99736.41
2018-06-10T03:44:20.802Z,99750.16
2018-06-10T03:46:48.982Z,99755.00
2018-06-10T03:49:17.150Z,99753.09
2018-06-10T03:51:45.499Z,99753.84
2018-06-10T03:54:13.659Z,99744.65
2018-06-10T03:56:41.826Z,99755.45
2018-06-10T03:59:09.987Z,99756.77
2018-06-10T04:01:38.146Z,99763.56
2018-06-10T04:04:06.370Z,99758.45
2018-06-10T04:06:34.522Z,99760.30
2018-06-10T04:09:03.082Z,99757.03
2018-06-10T04:11:31.242Z,99755.64
2018-06-10T04:13:59.400Z,99753.99
2018-06-10T04:16:29.168Z,99756.69
2018-06-10T04:18:58.000Z,99754.52
2018-06-10T04:21:26.277Z,99760.74
2018-06-10T04:23:54.418Z,99765.58
2018-06-10T04:26:22.586Z,99766.67
2018-06-10T04:28:50.746Z,99768.25
2018-06-10T04:31:18.903Z,99766.33
2018-06-10T04:33:47.077Z,99771.73
2018-06-10T04:36:15.237Z,99773.59
2018-06-10T04:38:43.415Z,99780.63
2018-06-10T04:41:11.627Z,99778.50
2018-06-10T04:43:39.867Z,99779.84
2018-06-10T04:46:08.058Z,99776.55
2018-06-10T04:48:36.206Z,99781.40
2018-06-10T04:51:04.370Z,99786.53
2018-06-10T04:53:32.523Z,99792.12
2018-06-10T04:56:00.686Z,99797.78
2018-06-10T04:58:28.882Z,99802.87
2018-06-10T05:00:57.054Z,99800.45
2018-06-10T05:03:25.214Z,99802.67
2018-06-10T05:05:53.378Z,99808.88
2018-06-10T05:08:21.554Z,99803.15
2018-06-10T05:10:49.714Z,99805.33
2018-06-10T05:13:18.178Z,99802.83
2018-06-10T05:15:46.394Z,99808.49
2018-06-10T05:18:14.598Z,99808.97
2018-06-10T05:20:42.756Z,99811.63
2018-06-10T05:23:10.906Z,99811.88
2018-06-10T05:25:39.354Z,99809.66
2018-06-10T05:28:07.518Z,99810.40
2018-06-10T05:30:35.675Z,99807.68
2018-06-10T05:33:03.850Z,99811.17
2018-06-10T05:35:32.032Z,99815.20
2018-06-10T05:38:00.442Z,99818.39
2018-06-10T05:40:28.679Z,99817.80
2018-06-10T05:42:56.900Z,99814.26
2018-06-10T05:45:25.091Z,99814.79
2018-06-10T05:47:53.335Z,99827.28
2018-06-10T05:50:21.551Z,99826.41
2018-06-10T05:52:49.774Z,99828.52
2018-06-10T05:55:18.045Z,99825.80
2018-06-10T05:57:46.242Z,99831.22
2018-06-10T06:00:14.495Z,99834.96
2018-06-10T06:02:42.672Z,99840.30
2018-06-10T06:05:10.895Z,99836.98
2018-06-10T06:07:39.107Z,99832.84
2018-06-10T06:10:07.306Z,99832.50
2018-06-10T06:12:35.525Z,99831.33
2018-06-10T06:15:03.723Z,99835.63
2018-06-10T06:17:31.979Z,99839.88
2018-06-10T06:20:00.182Z,99838.17
2018-06-10T06:22:28.428Z,99841.61
2018-06-10T06:24:56.630Z,99848.17
2018-06-10T06:27:24.873Z,99844.85
2018-06-10T06:29:53.107Z,99855.09
2018-06-10T06:32:21.376Z,99856.63
2018-06-10T06:34:49.644Z,99857.70
2018-06-10T06:37:17.847Z,99849.48
2018-06-10T06:39:46.131Z,99847.17
2018-06-10T06:42:14.378Z,99843.35
2018-06-10T06:44:42.623Z,99847.94
2018-06-10T06:47:10.948Z,99853.72
2018-06-10T06:52:06.452Z,99850.11
2018-06-10T06:54:34.637Z,99846.13
2018-06-10T06:57:02.847Z,99850.67
2018-06-10T06:59:31.062Z,99855.03
2018-06-10T07:01:59.225Z,99856.00
2018-06-10T07:04:27.430Z,99854.87
2018-06-10T07:06:55.659Z,99849.16
2018-06-10T07:09:23.850Z,99849.98
2018-06-10T07:11:52.059Z,99851.66
2018-06-10T07:14:20.334Z,99850.84
2018-06-10T07:16:48.602Z,99845.49
2018-06-10T07:19:16.782Z,99846.11
2018-06-10T07:21:45.004Z,99841.33
2018-06-10T07:24:13.238Z,99842.41
2018-06-10T07:26:41.476Z,99842.44
2018-06-10T07:29:09.642Z,99843.13
2018-06-10T07:31:37.846Z,99847.70
2018-06-10T07:34:06.040Z,99844.73
2018-06-10T07:36:34.258Z,99849.17
2018-06-10T07:39:02.452Z,99851.09
2018-06-10T07:41:30.708Z,99848.56
2018-06-10T07:43:58.872Z,99848.78
2018-06-10T07:46:27.063Z,99854.36
2018-06-10T07:48:55.283Z,99857.54
2018-06-10T07:51:23.475Z,99858.04
2018-06-10T07:53:51.666Z,99861.83
2018-06-10T07:56:19.900Z,99867.45
2018-06-10T07:58:48.079Z,99864.70
2018-06-10T08:01:16.291Z,99864.16
2018-06-10T08:03:44.486Z,99862.27
2018-06-10T08:06:12.656Z,99868.24
2018-06-10T08:08:40.842Z,99859.84
2018-06-10T08:11:09.054Z,99859.72
2018-06-10T08:13:37.229Z,99866.84
2018-06-10T08:16:05.401Z,99852.54
2018-06-10T08:18:33.575Z,99860.41
2018-06-10T08:21:01.759Z,99852.94
2018-06-10T08:23:29.935Z,99851.70
2018-06-10T08:25:58.102Z,99849.45
2018-06-10T08:28:26.274Z,99844.05
2018-06-10T08:30:54.450Z,99847.59
2018-06-10T08:33:22.629Z,99851.13
2018-06-10T08:35:51.419Z,99854.48
2018-06-10T08:38:19.574Z,99853.61
2018-06-10T08:40:48.051Z,99854.59
2018-06-10T08:43:16.247Z,99858.34
2018-06-10T08:45:44.508Z,99858.80
2018-06-10T08:48:13.120Z,99860.55
2018-06-10T08:50:41.290Z,99855.89
2018-06-10T08:53:09.442Z,99859.96
2018-06-10T08:55:37.597Z,99859.02
2018-06-10T08:58:05.838Z,99863.81
2018-06-10T09:00:34.071Z,99863.77
2018-06-10T09:03:02.215Z,99857.72
2018-06-10T09:05:30.382Z,99860.98
2018-06-10T09:07:58.551Z,99859.10
2018-06-10T09:10:27.066Z,99865.98
2018-06-10T09:12:55.307Z,99868.47
2018-06-10T09:15:23.498Z,99867.58
2018-06-10T09:17:51.811Z,99873.66
2018-06-10T09:20:20.283Z,99866.30
2018-06-10T09:22:48.450Z,99865.59
2018-06-10T09:25:16.674Z,99868.64
2018-06-10T09:27:45.016Z,99870.87
2018-06-10T09:30:13.182Z,99871.34
2018-06-10T09:32:41.358Z,99866.50
2018-06-10T09:35:09.718Z,99864.33
2018-06-10T09:37:37.918Z,99874.64
2018-06-10T09:40:06.111Z,99870.72
2018-06-10T09:42:34.305Z,99866.39
2018-06-10T09:45:02.715Z,99867.42
2018-06-10T09:47:30.896Z,99862.66
2018-06-10T09:49:59.115Z,99859.08
2018-06-10T09:52:27.314Z,99857.29
2018-06-10T09:54:55.492Z,99860.53
2018-06-10T09:57:23.682Z,99863.11
2018-06-10T09:59:51.886Z,99871.18
2018-06-10T10:02:20.119Z,99868.07
2018-06-10T10:04:48.280Z,99869.72
2018-06-10T10:07:16.499Z,99869.55
2018-06-10T10:09:44.730Z,99873.12
2018-06-10T10:12:12.956Z,99870.69
2018-06-10T10:14:41.158Z,99866.98
2018-06-10T10:17:09.318Z,99870.91
2018-06-10T10:19:37.514Z,99871.55
2018-06-10T10:22:05.726Z,99870.86
2018-06-10T10:24:33.902Z,99866.95
2018-06-10T10:27:02.133Z,99869.23
2018-06-10T10:29:30.328Z,99877.80
2018-06-10T10:31:58.563Z,99872.70
2018-06-10T10:34:26.743Z,99865.09
2018-06-10T10:36:54.943Z,99872.00
2018-06-10T10:39:23.126Z,99866.48
2018-06-10T10:41:51.351Z,99864.19
2018-06-10T10:44:19.551Z,99866.28
2018-06-10T10:46:47.790Z,99867.98
2018-06-10T10:49:16.100Z,99865.17
2018-06-10T10:51:44.309Z,99864.31
2018-06-10T10:54:12.555Z,99868.08
2018-06-10T10:56:40.934Z,99864.05
2018-06-10T10:59:09.139Z,99870.28
2018-06-10T11:01:37.320Z,99863.63
2018-06-10T11:04:05.518Z,99859.17
2018-06-10T11:06:33.719Z,99859.39
2018-06-10T11:09:01.940Z,99864.64
2018-06-10T11:11:30.142Z,99862.78
2018-06-10T11:13:58.364Z,99860.95
2018-06-10T11:16:26.638Z,99865.87
2018-06-10T11:18:54.809Z,99864.86
2018-06-10T11:21:23.026Z,99859.80
2018-06-10T11:23:51.206Z,99859.84
2018-06-10T11:26:19.463Z,99865.29
2018-06-10T11:28:47.698Z,99868.56
2018-06-10T11:31:15.901Z,99860.48
2018-06-10T11:33:44.100Z,99857.10
2018-06-10T11:36:12.423Z,99860.22
2018-06-10T11:38:40.614Z,99858.52
2018-06-10T11:41:08.802Z,99861.47
2018-06-10T11:43:37.197Z,99863.41
2018-06-10T11:46:05.443Z,99858.98
2018-06-10T11:48:33.691Z,99857.69
2018-06-10T11:51:02.006Z,99861.13
2018-06-10T11:53:30.265Z,99859.94
2018-06-10T11:55:58.426Z,99858.09
2018-06-10T11:58:26.657Z,99864.16
2018-06-10T12:00:54.816Z,99858.10
2018-06-10T12:03:23.019Z,99860.83
2018-06-10T12:05:51.194Z,99864.29
2018-06-10T12:08:19.366Z,99863.37
2018-06-10T12:10:47.546Z,99862.34
2018-06-10T12:13:15.722Z,99861.48
2018-06-10T12:15:43.899Z,99865.02
2018-06-10T12:18:12.110Z,99858.85
2018-06-10T12:20:41.204Z,99853.08
2018-06-10T12:23:09.371Z,99852.84
2018-06-10T12:25:37.591Z,99856.48
2018-06-10T12:28:05.914Z,99851.02
2018-06-10T12:30:34.098Z,99850.66
2018-06-10T12:33:02.296Z,99839.96
2018-06-10T12:35:30.454Z,99845.70
2018-06-10T12:37:58.679Z,99842.91
2018-06-10T12:40:26.826Z,99841.92
2018-06-10T12:42:55.070Z,99838.45
2018-06-10T12:45:23.243Z,99838.53
2018-06-10T12:47:51.413Z,99835.59
2018-06-10T12:50:19.587Z,99835.00
2018-06-10T12:52:47.774Z,99833.85
2018-06-10T12:55:15.943Z,99833.78
2018-06-10T12:57:44.094Z,99823.20
2018-06-10T13:00:12.270Z,99822.02
2018-06-10T13:02:40.499Z,99826.20
2018-06-10T13:05:08.650Z,99814.53
2018-06-10T13:07:36.817Z,99810.95
2018-06-10T13:10:05.007Z,99819.39
2018-06-10T13:12:33.166Z,99815.42
2018-06-10T13:15:01.343Z,99810.66
2018-06-10T13:17:29.522Z,99805.75
2018-06-10T13:19:57.714Z,99809.09
2018-06-10T13:22:25.888Z,99812.55
2018-06-10T13:24:54.158Z,99809.63
2018-06-10T13:27:22.346Z,99810.42
2018-06-10T13:29:50.561Z,99814.61
2018-06-10T13:32:19.024Z,99808.87
2018-06-10T13:34:47.178Z,99811.77
2018-06-10T13:37:15.335Z,99807.58
2018-06-10T13:39:43.544Z,99809.50
2018-06-10T13:42:14.604Z,99799.81
2018-06-10T13:44:43.531Z,99810.61
2018-06-10T13:47:15.073Z,99804.55
2018-06-10T13:49:43.731Z,99801.91
2018-06-10T13:52:12.107Z,99800.09
2018-06-10T13:54:41.291Z,99795.43
2018-06-10T13:57:09.480Z,99801.11
2018-06-10T13:59:37.754Z,99800.30
2018-06-10T14:02:07.548Z,99802.88
2018-06-10T14:04:36.880Z,99807.25
2018-06-10T14:07:07.151Z,99800.70
2018-06-10T14:09:36.649Z,99797.93
2018-06-10T14:12:04.905Z,99793.00
2018-06-10T14:14:33.052Z,99801.20
2018-06-10T14:17:01.632Z,99798.30
2018-06-10T14:19:29.785Z,99790.26
2018-06-10T14:21:59.789Z,99791.20
2018-06-10T14:24:27.938Z,99793.14
2018-06-10T14:26:56.095Z,99783.55
2018-06-10T14:29:24.318Z,99785.59
2018-06-10T14:31:52.831Z,99786.34
2018-06-10T14:34:20.977Z,99787.41
2018-06-10T14:36:49.134Z,99783.08
2018-06-10T14:39:17.438Z,99778.05
2018-06-10T14:41:45.582Z,99776.39
2018-06-10T14:44:14.258Z,99780.31
2018-06-10T14:46:42.434Z,99784.09
2018-06-10T14:49:10.621Z,99787.09
2018-06-10T14:51:38.810Z,99784.00
2018-06-10T14:54:07.037Z,99780.92
2018-06-10T14:56:35.203Z,99773.58
2018-06-10T14:59:03.366Z,99770.97
2018-06-10T15:01:31.590Z,99767.16
2018-06-10T15:03:59.774Z,99772.27
2018-06-10T15:06:28.141Z,99771.73
2018-06-10T15:08:56.527Z,99762.82
2018-06-10T15:11:24.743Z,99765.21
2018-06-10T15:13:52.945Z,99765.75
2018-06-10T15:16:21.408Z,99764.23
2018-06-10T15:18:49.873Z,99764.03
2018-06-10T15:21:18.107Z,99760.40
2018-06-10T15:23:46.280Z,99760.17
2018-06-10T16:00:05.756Z,99736.15
2018-06-10T16:02:33.987Z,99731.58
2018-06-10T16:05:02.328Z,99730.27
2018-06-10T16:07:30.726Z,99733.36
2018-06-10T16:10:00.991Z,99735.27
2018-06-10T16:12:29.180Z,99729.80
2018-06-10T16:14:57.411Z,99722.80
2018-06-10T16:17:25.618Z,99720.07
2018-06-10T16:19:53.851Z,99723.08
2018-06-10T16:22:22.018Z,99720.65
2018-06-10T16:24:50.218Z,99721.47
2018-06-10T16:27:18.403Z,99719.36
2018-06-10T16:29:46.600Z,99719.17
2018-06-10T16:32:14.791Z,99721.52
2018-06-10T16:34:42.983Z,99716.83
2018-06-10T16:37:11.198Z,99726.48
2018-06-10T16:39:39.375Z,99721.17
2018-06-10T16:42:07.715Z,99728.61
2018-06-10T16:44:36.073Z,99733.70
2018-06-10T16:47:04.473Z,99733.27
2018-06-10T16:49:32.757Z,99736.89
2018-06-10T16:52:01.018Z,99737.31
2018-06-10T16:54:29.446Z,99724.51
2018-06-10T16:56:57.748Z,99736.25
2018-06-10T16:59:26.103Z,99732.32
2018-06-10T17:01:54.339Z,99734.33
2018-06-10T17:04:22.899Z,99739.97
2018-06-10T17:06:51.152Z,99740.41
2018-06-10T17:09:19.390Z,99740.05
2018-06-10T17:11:47.653Z,99736.36
2018-06-10T17:14:15.891Z,99741.83
2018-06-10T17:16:44.096Z,99741.41
2018-06-10T17:19:12.272Z,99752.19
2018-06-10T17:21:40.508Z,99753.12
2018-06-10T17:24:08.750Z,99749.80
2018-06-10T17:26:36.936Z,99753.29
2018-06-10T17:29:05.158Z,99760.61
2018-06-10T17:31:33.812Z,99755.39
2018-06-10T17:34:02.840Z,99748.87
2018-06-10T17:36:31.081Z,99749.45
2018-06-10T17:38:59.241Z,99735.77
2018-06-10T17:41:27.454Z,99739.84
2018-06-10T17:43:55.624Z,99740.57
2018-06-10T17:46:23.779Z,99740.63
2018-06-10T17:48:52.242Z,99740.91
2018-06-10T17:51:20.404Z,99747.73
2018-06-10T17:53:48.619Z,99743.80
2018-06-10T17:56:16.726Z,99747.00
2018-06-10T17:58:45.294Z,99744.09
2018-06-10T18:01:13.451Z,99745.36
2018-06-10T18:03:41.627Z,99750.27
2018-06-10T18:06:09.800Z,99749.17
2018-06-10T18:08:37.982Z,99741.03
2018-06-10T18:11:06.861Z,99736.66
2018-06-10T18:13:35.050Z,99735.20
2018-06-10T18:16:03.448Z,99724.15
2018-06-10T18:18:31.926Z,99730.18
2018-06-10T18:21:00.366Z,99731.73
2018-06-10T18:23:28.486Z,99732.84
2018-06-10T18:25:56.686Z,99734.57
2018-06-10T18:28:24.891Z,99741.02
2018-06-10T18:30:53.075Z,99748.02
2018-06-10T18:33:21.225Z,99752.34
2018-06-10T18:35:49.535Z,99759.30
2018-06-10T18:38:17.867Z,99755.89
2018-06-10T18:40:46.030Z,99754.84
2018-06-10T18:43:14.398Z,99754.97
2018-06-10T18:45:42.586Z,99760.66
2018-06-10T18:48:10.751Z,99761.73
2018-06-10T18:50:38.914Z,99768.84
2018-06-10T18:53:07.386Z,99765.20
2018-06-10T18:55:35.758Z,99765.97
2018-06-10T18:58:03.918Z,99767.82
2018-06-10T19:00:33.164Z,99774.66
2018-06-10T19:03:01.413Z,99780.66
2018-06-10T19:05:29.591Z,99781.28
2018-06-10T19:07:57.759Z,99792.36
2018-06-10T19:10:26.003Z,99785.59
2018-06-10T19:12:54.250Z,99791.55
2018-06-10T19:15:22.411Z,99787.80
2018-06-10T19:17:50.710Z,99789.61
2018-06-10T19:20:18.965Z,99790.28
2018-06-10T19:22:47.277Z,99788.63
2018-06-10T19:25:15.555Z,99791.44
2018-06-10T19:27:43.838Z,99796.80
2018-06-10T19:30:12.251Z,99794.69
2018-06-10T19:32:40.547Z,99795.32
2018-06-10T19:35:09.177Z,99800.06
2018-06-10T19:37:38.275Z,99803.08
2018-06-10T19:40:06.503Z,99812.00
2018-06-10T19:42:34.671Z,99814.84
2018-06-10T19:45:02.906Z,99814.56
2018-06-10T19:47:31.019Z,99815.17
2018-06-10T19:49:59.179Z,99814.42
2018-06-10T19:52:27.354Z,99809.56
2018-06-10T19:54:55.506Z,99815.92
2018-06-10T19:57:23.679Z,99819.76
2018-06-10T19:59:51.840Z,99827.61
2018-06-10T20:02:19.994Z,99820.50
2018-06-10T20:04:48.320Z,99824.77
2018-06-10T20:07:16.473Z,99824.88
2018-06-10T20:09:44.642Z,99829.48
2018-06-10T20:12:12.838Z,99826.58
2018-06-10T20:14:41.010Z,99828.69
2018-06-10T20:17:09.192Z,99831.31
2018-06-10T20:19:37.362Z,99833.27
2018-06-10T20:22:05.535Z,99834.25
2018-06-10T20:24:33.705Z,99830.32
2018-06-10T20:27:01.896Z,99825.45
2018-06-10T20:29:30.064Z,99826.93
2018-06-10T20:31:58.234Z,99824.49
2018-06-10T20:34:26.395Z,99832.19
2018-06-10T20:36:54.564Z,99832.24
2018-06-10T20:39:22.734Z,99830.99
2018-06-10T20:41:50.915Z,99824.52
2018-06-10T20:44:19.654Z,99826.23
2018-06-10T20:46:47.811Z,99831.95
2018-06-10T20:49:15.994Z,99834.69
2018-06-10T20:51:44.143Z,99827.23
2018-06-10T20:54:12.306Z,99827.58
2018-06-10T20:56:40.466Z,99829.31
2018-06-10T20:59:08.647Z,99840.72
2018-06-10T21:01:36.819Z,99839.73
2018-06-10T21:04:04.999Z,99835.47
2018-06-10T21:06:33.174Z,99839.55
2018-06-10T21:09:01.351Z,99838.97
2018-06-10T21:11:29.511Z,99834.83
2018-06-10T21:13:57.658Z,99841.95
2018-06-10T21:16:25.823Z,99839.83
2018-06-10T21:18:54.011Z,99843.64
2018-06-10T21:21:22.179Z,99837.03
2018-06-10T21:23:50.330Z,99837.44
2018-06-10T21:26:18.495Z,99833.55
2018-06-10T21:28:46.662Z,99829.82
2018-06-10T21:31:14.811Z,99832.58
2018-06-10T21:33:43.039Z,99833.44
2018-06-10T21:36:11.209Z,99838.08
2018-06-10T21:38:39.374Z,99831.88
2018-06-10T21:41:07.539Z,99841.64
2018-06-10T21:43:35.898Z,99840.09
2018-06-10T21:46:04.098Z,99836.36
2018-06-10T21:48:32.270Z,99838.81
2018-06-10T21:51:00.443Z,99839.67
2018-06-10T21:53:28.606Z,99835.88
2018-06-10T21:55:56.771Z,99837.75
2018-06-10T21:58:25.049Z,99843.48
2018-06-10T22:00:53.275Z,99840.50
2018-06-10T22:03:21.443Z,99842.72
2018-06-10T22:05:49.599Z,99851.42
2018-06-10T22:08:17.769Z,99852.27
2018-06-10T22:10:45.932Z,99855.57
2018-06-10T22:13:14.350Z,99849.90
2018-06-10T22:15:42.514Z,99851.90
2018-06-10T22:18:10.673Z,99854.09
2018-06-10T22:20:38.846Z,99862.21
2018-06-10T22:23:07.006Z,99870.06
2018-06-10T22:25:35.163Z,99871.95
2018-06-10T22:28:03.322Z,99870.64
2018-06-10T22:30:31.497Z,99875.22
2018-06-10T22:32:59.655Z,99883.92
2018-06-10T22:35:27.814Z,99882.05
2018-06-10T22:37:55.983Z,99876.94
2018-06-10T22:40:24.142Z,99883.14
2018-06-10T22:42:52.299Z,99879.95
2018-06-10T22:45:20.457Z,99882.70
2018-06-10T22:47:48.624Z,99883.80
2018-06-10T22:50:16.781Z,99880.05
2018-06-10T22:52:44.941Z,99879.75
2018-06-10T22:55:13.097Z,99874.07
2018-06-10T22:57:41.271Z,99874.67
2018-06-10T23:00:09.449Z,99871.41
2018-06-10T23:02:37.586Z,99871.23
2018-06-10T23:05:05.757Z,99874.19
2018-06-10T23:07:33.916Z,99866.91
2018-06-10T23:10:02.077Z,99865.25
2018-06-10T23:12:30.235Z,99873.67
2018-06-10T23:14:58.407Z,99866.38
2018-06-10T23:17:26.590Z,99866.11
2018-06-10T23:19:54.757Z,99873.17
2018-06-10T23:22:22.922Z,99878.02
2018-06-10T23:24:51.074Z,99880.99
2018-06-10T23:27:19.290Z,99887.78
2018-06-10T23:29:47.385Z,99877.23
2018-06-10T23:32:15.543Z,99882.67
2018-06-10T23:34:43.702Z,99881.52
2018-06-10T23:37:11.882Z,99881.52
2018-06-10T23:39:40.459Z,99883.96
2018-06-10T23:42:08.611Z,99881.81
2018-06-10T23:44:36.762Z,99876.70
2018-06-10T23:47:04.919Z,99877.56
2018-06-10T23:49:33.070Z,99880.52
2018-06-10T23:52:01.238Z,99880.52
2018-06-10T23:54:29.387Z,99884.81
2018-06-10T23:56:57.543Z,99891.08
2018-06-10T23:59:25.710Z,99882.91
